createdAt,value
2016-10-31T00:01:59.070Z,0
2016-10-31T00:05:34.938Z,0
2016-10-31T00:09:12.589Z,0
2016-10-31T00:12:48.671Z,0
2016-10-31T00:16:26.018Z,0
2016-10-31T00:20:03.332Z,0
2016-10-31T00:23:40.534Z,0
2016-10-31T00:27:17.406Z,0
2016-10-31T00:30:54.087Z,0
2016-10-31T00:34:31.200Z,0
2016-10-31T00:38:08.095Z,0
2016-10-31T00:41:45.767Z,0
2016-10-31T00:45:22.190Z,0
2016-10-31T00:48:59.435Z,0
2016-10-31T00:52:36.309Z,0
2016-10-31T00:56:12.736Z,0
2016-10-31T00:59:49.782Z,0
2016-10-31T01:03:26.983Z,0
2016-10-31T01:07:04.532Z,0
2016-10-31T01:10:40.955Z,0
2016-10-31T01:14:18.395Z,0
2016-10-31T01:17:54.726Z,0
2016-10-31T01:21:43.538Z,0
2016-10-31T01:25:19.544Z,0
2016-10-31T01:28:55.323Z,0
2016-10-31T01:32:31.554Z,0
2016-10-31T01:36:07.799Z,0
2016-10-31T01:39:43.841Z,0
2016-10-31T01:43:26.201Z,0
2016-10-31T01:47:01.735Z,0
2016-10-31T01:50:59.734Z,0
2016-10-31T01:54:16.409Z,0
2016-10-31T01:57:52.287Z,0
2016-10-31T02:01:28.726Z,0
2016-10-31T02:05:06.601Z,0
2016-10-31T02:08:43.173Z,0
2016-10-31T02:13:43.414Z,0
2016-10-31T02:17:00.444Z,0
2016-10-31T02:20:36.640Z,0
2016-10-31T02:24:12.372Z,0
2016-10-31T02:27:42.721Z,0
2016-10-31T02:31:30.177Z,0
2016-10-31T02:35:06.349Z,0
2016-10-31T02:38:43.833Z,0
2016-10-31T02:42:19.671Z,0
2016-10-31T02:45:57.299Z,0
2016-10-31T02:49:33.695Z,0
2016-10-31T02:53:11.233Z,0
2016-10-31T02:56:47.708Z,0
2016-10-31T03:00:25.148Z,0
2016-10-31T03:04:01.650Z,0
2016-10-31T03:07:39.341Z,0
2016-10-31T03:11:15.514Z,0
2016-10-31T03:14:53.043Z,0
2016-10-31T03:18:30.335Z,0
2016-10-31T03:22:06.739Z,0
2016-10-31T03:25:43.982Z,0
2016-10-31T03:29:20.680Z,0
2016-10-31T03:32:58.022Z,0
2016-10-31T03:36:35.498Z,0
2016-10-31T03:40:12.381Z,0
2016-10-31T03:43:49.247Z,0
2016-10-31T03:47:25.721Z,0
2016-10-31T03:51:03.265Z,0
2016-10-31T03:54:39.388Z,0
2016-10-31T03:58:16.969Z,0
2016-10-31T04:01:54.227Z,0
2016-10-31T04:05:30.884Z,0
2016-10-31T04:09:07.816Z,0
2016-10-31T04:12:45.135Z,0
2016-10-31T04:16:21.670Z,0
2016-10-31T04:19:59.153Z,0
2016-10-31T04:23:36.386Z,0
2016-10-31T04:27:12.521Z,0
2016-10-31T04:30:49.889Z,0
2016-10-31T04:34:26.698Z,0
2016-10-31T04:38:06.962Z,0
2016-10-31T04:41:43.332Z,0
2016-10-31T04:45:19.403Z,0
2016-10-31T04:48:57.161Z,0
2016-10-31T04:52:33.758Z,0
2016-10-31T04:56:11.287Z,0
2016-10-31T04:59:47.451Z,0
2016-10-31T05:03:25.320Z,0
2016-10-31T05:07:01.235Z,0
2016-10-31T05:11:05.973Z,0
2016-10-31T05:14:41.760Z,0
2016-10-31T05:18:17.980Z,0
2016-10-31T05:21:54.778Z,0
2016-10-31T05:25:34.885Z,0
2016-10-31T05:29:12.805Z,0
2016-10-31T05:32:53.053Z,0
2016-10-31T05:36:28.863Z,0
2016-10-31T05:40:05.796Z,0
2016-10-31T05:43:43.377Z,0
2016-10-31T05:47:19.706Z,0
2016-10-31T05:50:56.548Z,4
2016-10-31T05:54:33.976Z,4
2016-10-31T05:58:10.298Z,8
2016-10-31T06:01:48.301Z,20
2016-10-31T06:05:24.211Z,40
2016-10-31T06:09:01.832Z,68
2016-10-31T06:12:38.272Z,96
2016-10-31T06:16:15.465Z,128
2016-10-31T06:19:53.037Z,188
2016-10-31T06:28:13.749Z,412
2016-10-31T06:31:49.632Z,536
2016-10-31T06:35:25.399Z,620
2016-10-31T06:39:00.961Z,704
2016-10-31T06:42:37.321Z,788
2016-10-31T06:46:44.991Z,904
2016-10-31T06:50:21.438Z,996
2016-10-31T06:53:58.436Z,1080
2016-10-31T06:57:35.971Z,1148
2016-10-31T07:01:12.407Z,1244
2016-10-31T07:04:49.989Z,1292
2016-10-31T07:08:26.206Z,1284
2016-10-31T07:12:03.850Z,1292
2016-10-31T07:15:40.360Z,1320
2016-10-31T07:19:18.219Z,1300
2016-10-31T07:22:54.214Z,1348
2016-10-31T07:26:31.735Z,1364
2016-10-31T07:30:08.193Z,1372
2016-10-31T07:33:45.362Z,1348
2016-10-31T07:37:22.397Z,1436
2016-10-31T07:40:59.917Z,1404
2016-10-31T07:44:36.213Z,1456
2016-10-31T07:48:13.776Z,1460
2016-10-31T07:51:50.059Z,1488
2016-10-31T07:55:27.539Z,1540
2016-10-31T07:59:04.856Z,1556
2016-10-31T08:02:42.171Z,1644
2016-10-31T08:06:19.533Z,1740
2016-10-31T08:09:55.962Z,1704
2016-10-31T08:13:32.063Z,1668
2016-10-31T08:17:09.718Z,1632
2016-10-31T08:20:46.121Z,1596
2016-10-31T08:24:23.725Z,1592
2016-10-31T08:28:00.137Z,1636
2016-10-31T08:31:37.602Z,1600
2016-10-31T08:35:14.519Z,1712
2016-10-31T08:38:50.987Z,1712
2016-10-31T08:42:28.053Z,1664
2016-10-31T08:46:05.972Z,1756
2016-10-31T08:49:42.163Z,1772
2016-10-31T08:53:19.653Z,1796
2016-10-31T08:56:57.278Z,1824
2016-10-31T09:00:33.645Z,1864
2016-10-31T09:04:11.043Z,1876
2016-10-31T09:07:47.991Z,1892
2016-10-31T09:11:25.665Z,1892
2016-10-31T09:15:02.076Z,1888
2016-10-31T09:18:39.322Z,1884
2016-10-31T09:22:15.367Z,1892
2016-10-31T09:25:52.374Z,1876
2016-10-31T09:29:29.649Z,1872
2016-10-31T09:33:06.562Z,1852
2016-10-31T09:36:44.147Z,1852
2016-10-31T09:40:20.031Z,1860
2016-10-31T09:43:57.292Z,1860
2016-10-31T09:47:34.747Z,1860
2016-10-31T09:51:11.191Z,1860
2016-10-31T09:54:48.404Z,1860
2016-10-31T09:58:26.229Z,1808
2016-10-31T10:02:02.101Z,1796
2016-10-31T10:05:39.623Z,1732
2016-10-31T10:09:17.115Z,1856
2016-10-31T10:12:54.021Z,1852
2016-10-31T10:16:31.011Z,1840
2016-10-31T10:20:39.863Z,1832
2016-10-31T10:24:15.427Z,1820
2016-10-31T10:27:52.049Z,1824
2016-10-31T10:31:29.313Z,1764
2016-10-31T10:35:07.053Z,1820
2016-10-31T10:38:42.922Z,1808
2016-10-31T10:42:20.853Z,1800
2016-10-31T10:45:56.933Z,1780
2016-10-31T10:49:33.874Z,1768
2016-10-31T10:58:24.846Z,1736
2016-10-31T11:02:00.623Z,1724
2016-10-31T11:05:36.306Z,1716
2016-10-31T11:09:12.206Z,1704
2016-10-31T11:17:31.443Z,1680
2016-10-31T11:21:07.284Z,1676
2016-10-31T11:24:43.420Z,1672
2016-10-31T11:28:19.563Z,1664
2016-10-31T11:31:56.831Z,1656
2016-10-31T11:35:33.135Z,1652
2016-10-31T11:39:10.363Z,1648
2016-10-31T11:42:47.574Z,1648
2016-10-31T11:46:24.286Z,1648
2016-10-31T11:50:00.773Z,1648
2016-10-31T11:53:38.064Z,1652
2016-10-31T11:57:15.464Z,1648
2016-10-31T12:00:52.535Z,1652
2016-10-31T12:04:28.795Z,1660
2016-10-31T12:08:06.478Z,1664
2016-10-31T12:11:43.067Z,1668
2016-10-31T12:15:20.833Z,1676
2016-10-31T12:18:58.076Z,1684
2016-10-31T12:22:34.138Z,1692
2016-10-31T12:26:11.505Z,1696
2016-10-31T12:29:48.292Z,1704
2016-10-31T12:33:25.303Z,1712
2016-10-31T12:37:02.969Z,1720
2016-10-31T12:40:39.030Z,1728
2016-10-31T12:44:16.573Z,1736
2016-10-31T12:47:53.018Z,1736
2016-10-31T12:51:30.366Z,1740
2016-10-31T12:55:07.714Z,1740
2016-10-31T12:58:45.252Z,1748
2016-10-31T13:02:21.434Z,1748
2016-10-31T13:05:58.453Z,1744
2016-10-31T13:09:34.965Z,1696
2016-10-31T13:13:12.257Z,1724
2016-10-31T13:16:49.241Z,1732
2016-10-31T13:20:26.564Z,1712
2016-10-31T13:24:03.542Z,1716
2016-10-31T13:28:36.022Z,1712
2016-10-31T13:31:52.640Z,1704
2016-10-31T13:35:28.831Z,1696
2016-10-31T13:39:04.617Z,1684
2016-10-31T13:42:40.521Z,1672
2016-10-31T13:46:16.557Z,1656
2016-10-31T13:49:53.284Z,1648
2016-10-31T13:53:30.089Z,1632
2016-10-31T13:57:07.052Z,1620
2016-10-31T14:00:44.018Z,1604
2016-10-31T14:04:22.255Z,1588
2016-10-31T14:07:57.783Z,1572
2016-10-31T14:11:35.297Z,1556
2016-10-31T14:15:11.834Z,1536
2016-10-31T14:18:49.686Z,1512
2016-10-31T14:22:26.463Z,1492
2016-10-31T14:26:03.557Z,1468
2016-10-31T14:29:39.771Z,1448
2016-10-31T14:33:17.416Z,1424
2016-10-31T14:36:54.421Z,1396
2016-10-31T14:40:30.964Z,1372
2016-10-31T14:44:07.751Z,1340
2016-10-31T14:47:45.014Z,1308
2016-10-31T14:51:21.804Z,1276
2016-10-31T14:54:58.826Z,1244
2016-10-31T14:58:35.862Z,1204
2016-10-31T15:02:13.220Z,1168
2016-10-31T15:05:49.641Z,1128
2016-10-31T15:09:27.577Z,1084
2016-10-31T15:13:31.823Z,1032
2016-10-31T15:17:11.327Z,984
2016-10-31T15:20:48.887Z,928
2016-10-31T15:24:25.863Z,868
2016-10-31T15:28:03.168Z,804
2016-10-31T15:31:40.987Z,740
2016-10-31T15:35:17.628Z,668
2016-10-31T15:38:54.956Z,596
2016-10-31T15:42:32.076Z,520
2016-10-31T15:46:09.150Z,444
2016-10-31T15:50:21.276Z,64
2016-10-31T16:01:08.302Z,24
2016-10-31T16:04:23.673Z,16
2016-10-31T16:06:16.683Z,76
2016-10-31T16:09:58.730Z,48
2016-10-31T16:13:56.261Z,32
2016-10-31T16:17:13.502Z,16
2016-10-31T16:20:44.772Z,8
2016-10-31T16:24:22.094Z,4
2016-10-31T16:27:59.131Z,4
2016-10-31T16:32:08.838Z,0
2016-10-31T16:35:45.429Z,0
2016-10-31T16:39:22.495Z,0
2016-10-31T16:42:59.740Z,0
2016-10-31T16:46:36.120Z,0
2016-10-31T16:50:11.981Z,0
2016-10-31T16:53:48.619Z,0
2016-10-31T16:57:26.697Z,0
2016-10-31T17:01:03.167Z,0
2016-10-31T17:04:40.331Z,0
2016-10-31T17:08:16.454Z,0
2016-10-31T17:11:54.741Z,0
2016-10-31T17:15:31.336Z,0
2016-10-31T17:19:07.818Z,0
2016-10-31T17:22:44.891Z,0
2016-10-31T17:26:21.935Z,0
2016-10-31T17:30:00.762Z,0
2016-10-31T17:33:37.881Z,0
2016-10-31T17:37:14.238Z,0
2016-10-31T17:41:14.799Z,0
2016-10-31T17:44:55.778Z,0
2016-10-31T17:48:37.559Z,0
2016-10-31T17:52:14.185Z,0
2016-10-31T17:55:52.724Z,0
2016-10-31T17:59:51.929Z,0
2016-10-31T18:03:28.367Z,0
2016-10-31T18:06:45.186Z,0
2016-10-31T18:10:16.899Z,0
2016-10-31T18:13:55.236Z,0
2016-10-31T18:17:34.725Z,0
2016-10-31T18:21:10.721Z,0
2016-10-31T18:25:10.239Z,0
2016-10-31T18:28:47.029Z,0
2016-10-31T18:32:25.940Z,0
2016-10-31T18:36:08.892Z,0
2016-10-31T18:39:46.846Z,0
2016-10-31T18:43:23.992Z,0
2016-10-31T18:47:01.589Z,0
2016-10-31T18:51:10.767Z,0
2016-10-31T18:54:47.298Z,0
2016-10-31T18:58:23.975Z,0
2016-10-31T19:02:00.602Z,0
2016-10-31T19:05:37.680Z,0
2016-10-31T19:09:13.879Z,0
2016-10-31T19:12:50.895Z,0
2016-10-31T19:16:26.836Z,0
2016-10-31T19:20:03.228Z,0
2016-10-31T19:23:39.232Z,0
2016-10-31T19:27:41.632Z,0
2016-10-31T19:31:20.329Z,0
2016-10-31T19:35:00.520Z,0
2016-10-31T19:38:37.595Z,0
2016-10-31T19:42:16.061Z,0
2016-10-31T19:45:52.189Z,0
2016-10-31T19:49:29.911Z,0
2016-10-31T19:53:07.836Z,0
2016-10-31T19:56:44.283Z,0
2016-10-31T20:00:20.734Z,0
2016-10-31T20:03:57.932Z,0
2016-10-31T20:07:33.780Z,0
2016-10-31T20:11:10.862Z,0
2016-10-31T20:14:47.564Z,0
2016-10-31T20:18:23.951Z,0
2016-10-31T20:22:00.520Z,0
2016-10-31T20:25:37.337Z,0
2016-10-31T20:28:54.238Z,0
2016-10-31T20:32:30.797Z,0
2016-10-31T20:36:07.259Z,0
2016-10-31T20:39:43.473Z,0
2016-10-31T20:43:19.872Z,0
2016-10-31T20:46:56.378Z,0
2016-10-31T20:50:32.184Z,0
2016-10-31T20:54:08.788Z,0
2016-10-31T20:57:44.954Z,0
2016-10-31T21:01:21.741Z,0
2016-10-31T21:04:58.722Z,0
2016-10-31T21:08:35.631Z,0
2016-10-31T21:12:13.215Z,0
2016-10-31T21:15:49.676Z,0
2016-10-31T21:19:26.210Z,0
2016-10-31T21:23:04.042Z,0
2016-10-31T21:26:40.523Z,0
2016-10-31T21:30:17.905Z,0
2016-10-31T21:33:54.483Z,0
2016-10-31T21:37:32.368Z,0
2016-10-31T21:41:08.699Z,0
2016-10-31T21:44:45.663Z,0
2016-10-31T21:48:22.548Z,0
2016-10-31T21:52:00.274Z,0
2016-10-31T21:55:37.991Z,0
2016-10-31T21:59:14.450Z,0
2016-10-31T22:03:16.624Z,0
2016-10-31T22:06:53.054Z,0
2016-10-31T22:10:37.057Z,0
2016-10-31T22:14:14.655Z,0
2016-10-31T22:17:50.856Z,0
2016-10-31T22:21:27.345Z,0
2016-10-31T22:25:05.589Z,0
2016-10-31T22:29:03.144Z,0
2016-10-31T22:32:20.985Z,0
2016-10-31T22:35:57.842Z,0
2016-10-31T22:39:33.541Z,0
2016-10-31T22:43:10.795Z,0
2016-10-31T22:46:50.168Z,0
2016-10-31T22:50:28.257Z,0
2016-10-31T22:54:04.758Z,0
2016-10-31T22:57:43.684Z,0
2016-10-31T23:01:20.491Z,0
2016-10-31T23:04:57.002Z,0
2016-10-31T23:08:33.290Z,0
2016-10-31T23:12:11.494Z,0
2016-10-31T23:15:48.348Z,0
2016-10-31T23:19:25.769Z,0
2016-10-31T23:23:03.283Z,0
2016-10-31T23:26:40.266Z,0
2016-10-31T23:30:16.507Z,0
2016-10-31T23:33:53.159Z,0
2016-10-31T23:37:29.258Z,0
2016-10-31T23:41:06.045Z,0
2016-10-31T23:44:43.266Z,0
2016-10-31T23:48:19.780Z,0
2016-10-31T23:51:57.230Z,0
2016-10-31T23:55:33.447Z,0
2016-10-31T23:59:16.246Z,0
